sensor_id;sensor_type;location;lat;lon;timestamp;P1;durP1;ratioP1;P2;durP2;ratioP2
18853;SDS011;9556;49.374;19.446;2023-04-12T00:00:59;3.30;;;1.50;;
18853;SDS011;9556;49.374;19.446;2023-04-12T00:03:27;3.67;;;1.65;;
18853;SDS011;9556;49.374;19.446;2023-04-12T00:05:54;2.33;;;1.50;;
18853;SDS011;9556;49.374;19.446;2023-04-12T00:08:21;4.80;;;2.50;;
18853;SDS011;9556;49.374;19.446;2023-04-12T00:10:50;2.53;;;1.67;;
18853;SDS011;9556;49.374;19.446;2023-04-12T00:13:19;3.60;;;1.80;;
18853;SDS011;9556;49.374;19.446;2023-04-12T00:15:46;3.92;;;2.03;;
18853;SDS011;9556;49.374;19.446;2023-04-12T00:18:13;3.47;;;1.60;;
18853;SDS011;9556;49.374;19.446;2023-04-12T00:20:41;2.80;;;1.65;;
18853;SDS011;9556;49.374;19.446;2023-04-12T00:23:09;3.03;;;1.80;;
18853;SDS011;9556;49.374;19.446;2023-04-12T00:25:37;2.50;;;1.55;;
18853;SDS011;9556;49.374;19.446;2023-04-12T00:28:04;3.55;;;1.80;;
18853;SDS011;9556;49.374;19.446;2023-04-12T00:30:33;2.67;;;1.85;;
18853;SDS011;9556;49.374;19.446;2023-04-12T00:33:00;2.80;;;1.90;;
18853;SDS011;9556;49.374;19.446;2023-04-12T00:35:27;3.75;;;1.90;;
18853;SDS011;9556;49.374;19.446;2023-04-12T00:37:54;3.40;;;1.90;;
18853;SDS011;9556;49.374;19.446;2023-04-12T00:40:21;3.53;;;1.80;;
18853;SDS011;9556;49.374;19.446;2023-04-12T00:42:48;2.50;;;1.80;;
18853;SDS011;9556;49.374;19.446;2023-04-12T00:45:16;2.80;;;1.70;;
18853;SDS011;9556;49.374;19.446;2023-04-12T00:47:44;2.17;;;1.40;;
18853;SDS011;9556;49.374;19.446;2023-04-12T00:50:11;3.15;;;1.70;;
18853;SDS011;9556;49.374;19.446;2023-04-12T00:52:38;2.10;;;1.23;;
18853;SDS011;9556;49.374;19.446;2023-04-12T00:55:06;3.53;;;1.73;;
18853;SDS011;9556;49.374;19.446;2023-04-12T00:57:35;3.20;;;1.87;;
18853;SDS011;9556;49.374;19.446;2023-04-12T01:00:02;2.03;;;1.30;;
18853;SDS011;9556;49.374;19.446;2023-04-12T01:02:30;2.42;;;1.42;;
18853;SDS011;9556;49.374;19.446;2023-04-12T01:04:58;2.50;;;1.50;;
18853;SDS011;9556;49.374;19.446;2023-04-12T01:07:30;2.08;;;1.40;;
18853;SDS011;9556;49.374;19.446;2023-04-12T01:10:03;3.08;;;1.70;;
18853;SDS011;9556;49.374;19.446;2023-04-12T01:12:35;2.20;;;1.30;;
18853;SDS011;9556;49.374;19.446;2023-04-12T01:15:05;2.22;;;1.40;;
18853;SDS011;9556;49.374;19.446;2023-04-12T01:17:34;2.20;;;1.50;;
18853;SDS011;9556;49.374;19.446;2023-04-12T01:20:06;2.55;;;1.50;;
18853;SDS011;9556;49.374;19.446;2023-04-12T01:25:35;2.85;;;1.40;;
18853;SDS011;9556;49.374;19.446;2023-04-12T01:28:05;2.35;;;1.27;;
18853;SDS011;9556;49.374;19.446;2023-04-12T01:30:33;2.75;;;1.55;;
18853;SDS011;9556;49.374;19.446;2023-04-12T01:33:00;1.88;;;1.30;;
18853;SDS011;9556;49.374;19.446;2023-04-12T01:35:30;4.53;;;1.70;;
18853;SDS011;9556;49.374;19.446;2023-04-12T01:37:57;1.63;;;1.15;;
18853;SDS011;9556;49.374;19.446;2023-04-12T01:40:25;2.22;;;1.65;;
18853;SDS011;9556;49.374;19.446;2023-04-12T01:43:02;2.40;;;1.40;;
18853;SDS011;9556;49.374;19.446;2023-04-12T01:45:31;2.55;;;1.42;;
18853;SDS011;9556;49.374;19.446;2023-04-12T01:47:58;1.95;;;1.50;;
18853;SDS011;9556;49.374;19.446;2023-04-12T01:50:26;2.75;;;1.40;;
18853;SDS011;9556;49.374;19.446;2023-04-12T01:52:58;2.03;;;1.10;;
18853;SDS011;9556;49.374;19.446;2023-04-12T01:55:28;1.95;;;1.30;;
18853;SDS011;9556;49.374;19.446;2023-04-12T01:57:56;1.80;;;1.27;;
18853;SDS011;9556;49.374;19.446;2023-04-12T02:00:23;1.63;;;1.20;;
18853;SDS011;9556;49.374;19.446;2023-04-12T02:02:52;2.17;;;1.20;;
18853;SDS011;9556;49.374;19.446;2023-04-12T02:05:21;1.55;;;1.00;;
18853;SDS011;9556;49.374;19.446;2023-04-12T02:07:49;1.40;;;1.10;;
18853;SDS011;9556;49.374;19.446;2023-04-12T02:10:26;1.48;;;1.08;;
18853;SDS011;9556;49.374;19.446;2023-04-12T02:12:53;1.67;;;1.10;;
18853;SDS011;9556;49.374;19.446;2023-04-12T02:15:20;1.77;;;1.15;;
18853;SDS011;9556;49.374;19.446;2023-04-12T02:17:47;1.95;;;1.10;;
18853;SDS011;9556;49.374;19.446;2023-04-12T02:20:19;1.23;;;1.00;;
18853;SDS011;9556;49.374;19.446;2023-04-12T02:22:46;1.73;;;1.23;;
18853;SDS011;9556;49.374;19.446;2023-04-12T02:25:14;1.65;;;1.00;;
18853;SDS011;9556;49.374;19.446;2023-04-12T02:27:42;1.80;;;1.30;;
18853;SDS011;9556;49.374;19.446;2023-04-12T02:30:10;2.10;;;1.38;;
18853;SDS011;9556;49.374;19.446;2023-04-12T02:32:37;3.33;;;1.30;;
18853;SDS011;9556;49.374;19.446;2023-04-12T02:35:09;1.85;;;1.10;;
18853;SDS011;9556;49.374;19.446;2023-04-12T02:37:38;1.58;;;1.05;;
18853;SDS011;9556;49.374;19.446;2023-04-12T02:40:05;2.38;;;1.25;;
18853;SDS011;9556;49.374;19.446;2023-04-12T02:42:34;2.25;;;1.25;;
18853;SDS011;9556;49.374;19.446;2023-04-12T02:45:01;1.83;;;1.02;;
18853;SDS011;9556;49.374;19.446;2023-04-12T02:47:29;1.70;;;1.10;;
18853;SDS011;9556;49.374;19.446;2023-04-12T02:49:56;2.30;;;1.30;;
18853;SDS011;9556;49.374;19.446;2023-04-12T02:52:23;2.30;;;1.38;;
18853;SDS011;9556;49.374;19.446;2023-04-12T02:54:52;1.50;;;1.20;;
18853;SDS011;9556;49.374;19.446;2023-04-12T02:57:19;1.70;;;1.00;;
18853;SDS011;9556;49.374;19.446;2023-04-12T02:59:47;1.33;;;1.07;;
18853;SDS011;9556;49.374;19.446;2023-04-12T03:02:17;1.70;;;1.00;;
18853;SDS011;9556;49.374;19.446;2023-04-12T03:04:44;1.40;;;1.00;;
18853;SDS011;9556;49.374;19.446;2023-04-12T03:07:15;1.38;;;1.00;;
18853;SDS011;9556;49.374;19.446;2023-04-12T03:09:43;1.40;;;1.20;;
18853;SDS011;9556;49.374;19.446;2023-04-12T03:12:11;1.90;;;1.27;;
18853;SDS011;9556;49.374;19.446;2023-04-12T03:14:38;1.80;;;1.00;;
18853;SDS011;9556;49.374;19.446;2023-04-12T03:17:05;1.60;;;1.13;;
18853;SDS011;9556;49.374;19.446;2023-04-12T03:19:32;1.90;;;1.33;;
18853;SDS011;9556;49.374;19.446;2023-04-12T03:22:00;1.37;;;1.00;;
18853;SDS011;9556;49.374;19.446;2023-04-12T03:24:28;2.88;;;1.58;;
18853;SDS011;9556;49.374;19.446;2023-04-12T03:26:59;1.65;;;1.20;;
18853;SDS011;9556;49.374;19.446;2023-04-12T03:29:27;1.50;;;1.00;;
18853;SDS011;9556;49.374;19.446;2023-04-12T03:31:54;2.28;;;1.30;;
18853;SDS011;9556;49.374;19.446;2023-04-12T03:34:23;1.92;;;1.20;;
18853;SDS011;9556;49.374;19.446;2023-04-12T03:36:51;1.92;;;1.27;;
18853;SDS011;9556;49.374;19.446;2023-04-12T03:39:18;2.08;;;1.40;;
18853;SDS011;9556;49.374;19.446;2023-04-12T03:41:46;1.60;;;1.30;;
18853;SDS011;9556;49.374;19.446;2023-04-12T03:44:13;1.63;;;1.17;;
18853;SDS011;9556;49.374;19.446;2023-04-12T03:46:41;1.88;;;1.45;;
18853;SDS011;9556;49.374;19.446;2023-04-12T03:49:09;1.93;;;1.40;;
18853;SDS011;9556;49.374;19.446;2023-04-12T03:51:38;1.87;;;1.50;;
18853;SDS011;9556;49.374;19.446;2023-04-12T03:54:07;2.23;;;1.70;;
18853;SDS011;9556;49.374;19.446;2023-04-12T03:56:34;2.43;;;1.70;;
18853;SDS011;9556;49.374;19.446;2023-04-12T03:59:02;2.58;;;1.13;;
18853;SDS011;9556;49.374;19.446;2023-04-12T04:01:29;1.70;;;1.23;;
18853;SDS011;9556;49.374;19.446;2023-04-12T04:03:58;1.33;;;1.23;;
18853;SDS011;9556;49.374;19.446;2023-04-12T04:06:26;1.38;;;0.98;;
18853;SDS011;9556;49.374;19.446;2023-04-12T04:08:54;2.00;;;1.17;;
18853;SDS011;9556;49.374;19.446;2023-04-12T04:11:21;1.40;;;1.00;;
18853;SDS011;9556;49.374;19.446;2023-04-12T04:13:48;1.83;;;1.10;;
18853;SDS011;9556;49.374;19.446;2023-04-12T04:16:16;1.33;;;0.90;;
18853;SDS011;9556;49.374;19.446;2023-04-12T04:18:43;2.00;;;1.15;;
18853;SDS011;9556;49.374;19.446;2023-04-12T04:21:11;2.40;;;1.00;;
18853;SDS011;9556;49.374;19.446;2023-04-12T04:23:39;8.43;;;1.10;;
18853;SDS011;9556;49.374;19.446;2023-04-12T04:26:09;2.20;;;1.05;;
18853;SDS011;9556;49.374;19.446;2023-04-12T04:28:36;1.48;;;0.90;;
18853;SDS011;9556;49.374;19.446;2023-04-12T04:31:06;4.25;;;1.05;;
18853;SDS011;9556;49.374;19.446;2023-04-12T04:33:34;5.53;;;1.10;;
18853;SDS011;9556;49.374;19.446;2023-04-12T04:36:01;5.57;;;1.00;;
18853;SDS011;9556;49.374;19.446;2023-04-12T04:38:30;1.27;;;0.80;;
18853;SDS011;9556;49.374;19.446;2023-04-12T04:40:58;2.90;;;0.88;;
18853;SDS011;9556;49.374;19.446;2023-04-12T04:43:26;2.20;;;1.10;;
18853;SDS011;9556;49.374;19.446;2023-04-12T04:45:54;1.83;;;0.82;;
18853;SDS011;9556;49.374;19.446;2023-04-12T04:48:21;1.17;;;0.75;;
18853;SDS011;9556;49.374;19.446;2023-04-12T04:50:49;1.15;;;0.90;;
18853;SDS011;9556;49.374;19.446;2023-04-12T04:53:17;2.23;;;1.00;;
18853;SDS011;9556;49.374;19.446;2023-04-12T04:55:46;7.63;;;0.95;;
18853;SDS011;9556;49.374;19.446;2023-04-12T04:58:14;2.40;;;0.90;;
18853;SDS011;9556;49.374;19.446;2023-04-12T05:00:41;1.20;;;1.00;;
18853;SDS011;9556;49.374;19.446;2023-04-12T05:03:10;1.85;;;1.17;;
18853;SDS011;9556;49.374;19.446;2023-04-12T05:05:37;1.70;;;1.00;;
18853;SDS011;9556;49.374;19.446;2023-04-12T05:08:04;1.40;;;1.00;;
18853;SDS011;9556;49.374;19.446;2023-04-12T05:10:31;1.90;;;1.10;;
18853;SDS011;9556;49.374;19.446;2023-04-12T05:13:00;2.73;;;0.90;;
18853;SDS011;9556;49.374;19.446;2023-04-12T05:15:28;1.53;;;0.90;;
18853;SDS011;9556;49.374;19.446;2023-04-12T05:17:56;1.07;;;0.67;;
18853;SDS011;9556;49.374;19.446;2023-04-12T05:20:23;1.40;;;1.00;;
18853;SDS011;9556;49.374;19.446;2023-04-12T05:22:50;1.43;;;0.80;;
18853;SDS011;9556;49.374;19.446;2023-04-12T05:25:18;1.43;;;0.93;;
18853;SDS011;9556;49.374;19.446;2023-04-12T05:27:45;2.53;;;1.30;;
18853;SDS011;9556;49.374;19.446;2023-04-12T05:30:14;2.70;;;1.00;;
18853;SDS011;9556;49.374;19.446;2023-04-12T05:32:41;1.10;;;0.80;;
18853;SDS011;9556;49.374;19.446;2023-04-12T05:35:08;1.30;;;0.82;;
18853;SDS011;9556;49.374;19.446;2023-04-12T05:37:36;1.80;;;1.00;;
18853;SDS011;9556;49.374;19.446;2023-04-12T05:40:03;1.30;;;0.93;;
18853;SDS011;9556;49.374;19.446;2023-04-12T05:42:31;3.00;;;0.85;;
18853;SDS011;9556;49.374;19.446;2023-04-12T05:44:58;3.57;;;0.90;;
18853;SDS011;9556;49.374;19.446;2023-04-12T05:47:27;2.83;;;1.00;;
18853;SDS011;9556;49.374;19.446;2023-04-12T05:49:54;4.03;;;1.00;;
18853;SDS011;9556;49.374;19.446;2023-04-12T05:52:21;2.13;;;1.00;;
18853;SDS011;9556;49.374;19.446;2023-04-12T05:54:48;1.17;;;0.83;;
18853;SDS011;9556;49.374;19.446;2023-04-12T05:57:15;1.83;;;0.97;;
18853;SDS011;9556;49.374;19.446;2023-04-12T05:59:43;2.90;;;1.20;;
18853;SDS011;9556;49.374;19.446;2023-04-12T06:02:10;2.08;;;1.10;;
18853;SDS011;9556;49.374;19.446;2023-04-12T06:04:38;2.45;;;1.20;;
18853;SDS011;9556;49.374;19.446;2023-04-12T06:07:06;1.23;;;0.90;;
18853;SDS011;9556;49.374;19.446;2023-04-12T06:09:34;2.23;;;1.10;;
18853;SDS011;9556;49.374;19.446;2023-04-12T06:12:01;2.67;;;0.90;;
18853;SDS011;9556;49.374;19.446;2023-04-12T06:14:28;2.77;;;1.70;;
18853;SDS011;9556;49.374;19.446;2023-04-12T06:16:55;1.25;;;0.90;;
18853;SDS011;9556;49.374;19.446;2023-04-12T06:19:22;2.03;;;1.17;;
18853;SDS011;9556;49.374;19.446;2023-04-12T06:21:51;2.77;;;1.07;;
18853;SDS011;9556;49.374;19.446;2023-04-12T06:24:18;1.73;;;0.98;;
18853;SDS011;9556;49.374;19.446;2023-04-12T06:26:45;8.37;;;1.20;;
18853;SDS011;9556;49.374;19.446;2023-04-12T06:29:13;3.27;;;1.00;;
18853;SDS011;9556;49.374;19.446;2023-04-12T06:31:41;1.77;;;0.90;;
18853;SDS011;9556;49.374;19.446;2023-04-12T06:34:08;1.53;;;1.07;;
18853;SDS011;9556;49.374;19.446;2023-04-12T06:36:35;2.33;;;1.10;;
18853;SDS011;9556;49.374;19.446;2023-04-12T06:39:05;1.40;;;0.88;;
18853;SDS011;9556;49.374;19.446;2023-04-12T06:41:32;2.03;;;1.05;;
18853;SDS011;9556;49.374;19.446;2023-04-12T06:43:59;3.33;;;1.15;;
18853;SDS011;9556;49.374;19.446;2023-04-12T06:46:27;2.10;;;1.10;;
18853;SDS011;9556;49.374;19.446;2023-04-12T06:48:54;5.17;;;1.20;;
18853;SDS011;9556;49.374;19.446;2023-04-12T06:51:21;2.45;;;1.10;;
18853;SDS011;9556;49.374;19.446;2023-04-12T06:53:49;10.23;;;4.40;;
18853;SDS011;9556;49.374;19.446;2023-04-12T06:56:17;3.73;;;1.50;;
18853;SDS011;9556;49.374;19.446;2023-04-12T06:58:44;8.30;;;3.80;;
18853;SDS011;9556;49.374;19.446;2023-04-12T07:01:12;4.72;;;2.42;;
18853;SDS011;9556;49.374;19.446;2023-04-12T07:03:39;5.07;;;2.70;;
18853;SDS011;9556;49.374;19.446;2023-04-12T07:06:06;9.65;;;5.57;;
18853;SDS011;9556;49.374;19.446;2023-04-12T07:08:34;5.57;;;3.37;;
18853;SDS011;9556;49.374;19.446;2023-04-12T07:11:01;5.05;;;3.22;;
18853;SDS011;9556;49.374;19.446;2023-04-12T07:13:30;5.13;;;2.90;;
18853;SDS011;9556;49.374;19.446;2023-04-12T07:15:58;5.27;;;2.83;;
18853;SDS011;9556;49.374;19.446;2023-04-12T07:18:25;6.50;;;2.73;;
18853;SDS011;9556;49.374;19.446;2023-04-12T07:20:53;6.03;;;2.28;;
18853;SDS011;9556;49.374;19.446;2023-04-12T07:23:21;3.60;;;2.40;;
18853;SDS011;9556;49.374;19.446;2023-04-12T07:25:49;6.33;;;3.03;;
18853;SDS011;9556;49.374;19.446;2023-04-12T07:28:17;4.25;;;2.65;;
18853;SDS011;9556;49.374;19.446;2023-04-12T07:30:46;9.38;;;2.63;;
18853;SDS011;9556;49.374;19.446;2023-04-12T07:33:13;8.82;;;2.47;;
18853;SDS011;9556;49.374;19.446;2023-04-12T07:35:40;8.90;;;2.60;;
18853;SDS011;9556;49.374;19.446;2023-04-12T07:38:07;4.65;;;2.45;;
18853;SDS011;9556;49.374;19.446;2023-04-12T07:40:35;3.75;;;2.35;;
18853;SDS011;9556;49.374;19.446;2023-04-12T07:43:02;3.90;;;2.30;;
18853;SDS011;9556;49.374;19.446;2023-04-12T07:45:29;3.53;;;2.30;;
18853;SDS011;9556;49.374;19.446;2023-04-12T07:47:58;5.53;;;2.40;;
18853;SDS011;9556;49.374;19.446;2023-04-12T07:50:25;3.43;;;2.37;;
18853;SDS011;9556;49.374;19.446;2023-04-12T07:52:52;3.53;;;2.10;;
18853;SDS011;9556;49.374;19.446;2023-04-12T07:55:19;4.40;;;2.00;;
18853;SDS011;9556;49.374;19.446;2023-04-12T07:57:46;3.72;;;2.30;;
18853;SDS011;9556;49.374;19.446;2023-04-12T08:00:14;4.05;;;1.95;;
18853;SDS011;9556;49.374;19.446;2023-04-12T08:02:42;5.07;;;2.40;;
18853;SDS011;9556;49.374;19.446;2023-04-12T08:05:10;3.83;;;2.30;;
18853;SDS011;9556;49.374;19.446;2023-04-12T08:07:37;6.47;;;2.27;;
18853;SDS011;9556;49.374;19.446;2023-04-12T08:10:05;2.92;;;1.83;;
18853;SDS011;9556;49.374;19.446;2023-04-12T08:12:32;2.63;;;1.83;;
18853;SDS011;9556;49.374;19.446;2023-04-12T08:15:00;3.05;;;2.10;;
18853;SDS011;9556;49.374;19.446;2023-04-12T08:17:27;3.67;;;2.20;;
18853;SDS011;9556;49.374;19.446;2023-04-12T08:19:54;3.40;;;2.08;;
18853;SDS011;9556;49.374;19.446;2023-04-12T08:22:23;4.33;;;2.33;;
18853;SDS011;9556;49.374;19.446;2023-04-12T08:24:50;2.67;;;1.83;;
18853;SDS011;9556;49.374;19.446;2023-04-12T08:27:17;2.72;;;2.08;;
18853;SDS011;9556;49.374;19.446;2023-04-12T08:29:44;3.93;;;2.30;;
18853;SDS011;9556;49.374;19.446;2023-04-12T08:32:11;2.47;;;2.00;;
18853;SDS011;9556;49.374;19.446;2023-04-12T08:34:39;4.43;;;2.42;;
18853;SDS011;9556;49.374;19.446;2023-04-12T08:37:06;3.70;;;2.23;;
18853;SDS011;9556;49.374;19.446;2023-04-12T08:39:34;5.57;;;3.35;;
18853;SDS011;9556;49.374;19.446;2023-04-12T08:42:01;4.03;;;2.65;;
18853;SDS011;9556;49.374;19.446;2023-04-12T08:44:33;3.70;;;2.25;;
18853;SDS011;9556;49.374;19.446;2023-04-12T08:47:02;4.07;;;2.60;;
18853;SDS011;9556;49.374;19.446;2023-04-12T08:49:29;4.13;;;1.98;;
18853;SDS011;9556;49.374;19.446;2023-04-12T08:51:57;4.70;;;2.33;;
18853;SDS011;9556;49.374;19.446;2023-04-12T08:54:26;2.53;;;1.85;;
18853;SDS011;9556;49.374;19.446;2023-04-12T08:56:54;2.63;;;1.85;;
18853;SDS011;9556;49.374;19.446;2023-04-12T08:59:22;4.40;;;1.90;;
18853;SDS011;9556;49.374;19.446;2023-04-12T09:01:49;4.15;;;2.10;;
18853;SDS011;9556;49.374;19.446;2023-04-12T09:04:17;2.55;;;1.70;;
18853;SDS011;9556;49.374;19.446;2023-04-12T09:06:44;2.28;;;1.77;;
18853;SDS011;9556;49.374;19.446;2023-04-12T09:09:11;2.45;;;1.92;;
18853;SDS011;9556;49.374;19.446;2023-04-12T09:11:39;3.00;;;1.75;;
18853;SDS011;9556;49.374;19.446;2023-04-12T09:14:20;2.65;;;1.63;;
18853;SDS011;9556;49.374;19.446;2023-04-12T09:16:48;3.72;;;1.75;;
18853;SDS011;9556;49.374;19.446;2023-04-12T09:19:15;3.60;;;1.73;;
18853;SDS011;9556;49.374;19.446;2023-04-12T09:21:52;2.73;;;1.70;;
18853;SDS011;9556;49.374;19.446;2023-04-12T09:24:20;2.97;;;1.87;;
18853;SDS011;9556;49.374;19.446;2023-04-12T09:26:48;2.53;;;1.70;;
18853;SDS011;9556;49.374;19.446;2023-04-12T09:29:23;3.27;;;1.80;;
18853;SDS011;9556;49.374;19.446;2023-04-12T09:31:53;3.42;;;2.10;;
18853;SDS011;9556;49.374;19.446;2023-04-12T09:34:21;2.80;;;1.85;;
18853;SDS011;9556;49.374;19.446;2023-04-12T09:36:48;4.30;;;1.80;;
18853;SDS011;9556;49.374;19.446;2023-04-12T09:39:15;2.22;;;1.58;;
18853;SDS011;9556;49.374;19.446;2023-04-12T09:41:42;1.92;;;1.60;;
18853;SDS011;9556;49.374;19.446;2023-04-12T09:44:13;2.85;;;1.58;;
18853;SDS011;9556;49.374;19.446;2023-04-12T09:46:55;3.70;;;1.60;;
18853;SDS011;9556;49.374;19.446;2023-04-12T09:49:34;2.07;;;1.47;;
18853;SDS011;9556;49.374;19.446;2023-04-12T09:52:02;2.43;;;1.40;;
18853;SDS011;9556;49.374;19.446;2023-04-12T09:54:29;2.80;;;1.67;;
18853;SDS011;9556;49.374;19.446;2023-04-12T09:56:57;2.30;;;1.50;;
18853;SDS011;9556;49.374;19.446;2023-04-12T09:59:25;2.50;;;1.70;;
18853;SDS011;9556;49.374;19.446;2023-04-12T10:01:54;2.20;;;1.50;;
18853;SDS011;9556;49.374;19.446;2023-04-12T10:04:22;1.92;;;1.48;;
18853;SDS011;9556;49.374;19.446;2023-04-12T10:06:50;2.15;;;1.50;;
18853;SDS011;9556;49.374;19.446;2023-04-12T10:09:17;2.00;;;1.50;;
18853;SDS011;9556;49.374;19.446;2023-04-12T10:11:44;2.17;;;1.40;;
18853;SDS011;9556;49.374;19.446;2023-04-12T10:14:12;2.25;;;1.40;;
18853;SDS011;9556;49.374;19.446;2023-04-12T10:16:39;2.67;;;1.67;;
18853;SDS011;9556;49.374;19.446;2023-04-12T10:19:07;2.60;;;1.60;;
18853;SDS011;9556;49.374;19.446;2023-04-12T10:21:36;2.28;;;1.30;;
18853;SDS011;9556;49.374;19.446;2023-04-12T10:24:03;2.40;;;1.50;;
18853;SDS011;9556;49.374;19.446;2023-04-12T10:26:31;2.65;;;1.55;;
18853;SDS011;9556;49.374;19.446;2023-04-12T10:31:45;2.67;;;1.52;;
18853;SDS011;9556;49.374;19.446;2023-04-12T10:34:13;2.55;;;1.45;;
18853;SDS011;9556;49.374;19.446;2023-04-12T10:36:52;1.73;;;1.30;;
18853;SDS011;9556;49.374;19.446;2023-04-12T10:39:33;3.42;;;1.40;;
18853;SDS011;9556;49.374;19.446;2023-04-12T10:42:17;2.15;;;1.50;;
18853;SDS011;9556;49.374;19.446;2023-04-12T10:44:46;1.65;;;1.30;;
18853;SDS011;9556;49.374;19.446;2023-04-12T10:47:14;1.52;;;1.30;;
18853;SDS011;9556;49.374;19.446;2023-04-12T10:52:25;1.73;;;1.20;;
18853;SDS011;9556;49.374;19.446;2023-04-12T10:54:52;1.70;;;1.40;;
18853;SDS011;9556;49.374;19.446;2023-04-12T11:00:05;3.10;;;1.43;;
18853;SDS011;9556;49.374;19.446;2023-04-12T11:02:33;2.58;;;1.20;;
18853;SDS011;9556;49.374;19.446;2023-04-12T11:05:04;2.58;;;1.50;;
18853;SDS011;9556;49.374;19.446;2023-04-12T11:07:40;1.50;;;1.27;;
18853;SDS011;9556;49.374;19.446;2023-04-12T11:10:11;1.40;;;1.20;;
18853;SDS011;9556;49.374;19.446;2023-04-12T11:12:39;1.37;;;1.20;;
18853;SDS011;9556;49.374;19.446;2023-04-12T11:15:10;2.00;;;1.30;;
18853;SDS011;9556;49.374;19.446;2023-04-12T11:17:37;3.35;;;1.15;;
18853;SDS011;9556;49.374;19.446;2023-04-12T11:20:05;1.70;;;1.45;;
18853;SDS011;9556;49.374;19.446;2023-04-12T11:22:36;3.50;;;1.33;;
18853;SDS011;9556;49.374;19.446;2023-04-12T11:25:14;1.50;;;1.20;;
18853;SDS011;9556;49.374;19.446;2023-04-12T11:27:49;1.45;;;1.20;;
18853;SDS011;9556;49.374;19.446;2023-04-12T11:30:16;1.48;;;1.20;;
18853;SDS011;9556;49.374;19.446;2023-04-12T11:32:46;1.80;;;1.30;;
18853;SDS011;9556;49.374;19.446;2023-04-12T11:35:17;2.45;;;1.25;;
18853;SDS011;9556;49.374;19.446;2023-04-12T11:37:51;1.35;;;1.17;;
18853;SDS011;9556;49.374;19.446;2023-04-12T11:40:22;2.13;;;1.35;;
18853;SDS011;9556;49.374;19.446;2023-04-12T11:42:50;1.50;;;1.00;;
18853;SDS011;9556;49.374;19.446;2023-04-12T11:45:21;1.40;;;1.20;;
18853;SDS011;9556;49.374;19.446;2023-04-12T11:47:48;1.58;;;1.20;;
18853;SDS011;9556;49.374;19.446;2023-04-12T11:50:26;1.98;;;1.17;;
18853;SDS011;9556;49.374;19.446;2023-04-12T11:52:54;2.63;;;2.03;;
18853;SDS011;9556;49.374;19.446;2023-04-12T11:55:22;1.77;;;1.30;;
18853;SDS011;9556;49.374;19.446;2023-04-12T11:57:52;1.65;;;1.15;;
18853;SDS011;9556;49.374;19.446;2023-04-12T12:00:21;1.43;;;1.10;;
18853;SDS011;9556;49.374;19.446;2023-04-12T12:02:49;2.45;;;1.02;;
18853;SDS011;9556;49.374;19.446;2023-04-12T12:05:16;1.80;;;1.17;;
18853;SDS011;9556;49.374;19.446;2023-04-12T12:07:43;1.50;;;1.27;;
18853;SDS011;9556;49.374;19.446;2023-04-12T12:10:11;1.75;;;1.33;;
18853;SDS011;9556;49.374;19.446;2023-04-12T12:12:39;2.17;;;1.37;;
18853;SDS011;9556;49.374;19.446;2023-04-12T12:15:09;2.00;;;1.30;;
18853;SDS011;9556;49.374;19.446;2023-04-12T12:17:36;1.38;;;1.20;;
18853;SDS011;9556;49.374;19.446;2023-04-12T12:20:04;2.50;;;1.40;;
18853;SDS011;9556;49.374;19.446;2023-04-12T12:22:31;1.38;;;1.20;;
18853;SDS011;9556;49.374;19.446;2023-04-12T12:24:58;2.08;;;1.77;;
18853;SDS011;9556;49.374;19.446;2023-04-12T12:27:32;3.17;;;2.28;;
18853;SDS011;9556;49.374;19.446;2023-04-12T12:30:01;1.97;;;1.60;;
18853;SDS011;9556;49.374;19.446;2023-04-12T12:32:30;1.40;;;1.10;;
18853;SDS011;9556;49.374;19.446;2023-04-12T12:34:58;2.60;;;1.37;;
18853;SDS011;9556;49.374;19.446;2023-04-12T12:37:26;1.77;;;1.40;;
18853;SDS011;9556;49.374;19.446;2023-04-12T12:40:03;1.73;;;1.35;;
18853;SDS011;9556;49.374;19.446;2023-04-12T12:42:44;2.47;;;1.40;;
18853;SDS011;9556;49.374;19.446;2023-04-12T12:45:12;2.33;;;1.60;;
18853;SDS011;9556;49.374;19.446;2023-04-12T12:47:46;1.27;;;1.15;;
18853;SDS011;9556;49.374;19.446;2023-04-12T12:50:14;2.90;;;1.92;;
18853;SDS011;9556;49.374;19.446;2023-04-12T12:52:42;2.17;;;1.80;;
18853;SDS011;9556;49.374;19.446;2023-04-12T12:55:10;1.85;;;1.52;;
18853;SDS011;9556;49.374;19.446;2023-04-12T12:57:37;1.42;;;1.13;;
18853;SDS011;9556;49.374;19.446;2023-04-12T13:00:05;1.58;;;1.30;;
18853;SDS011;9556;49.374;19.446;2023-04-12T13:02:35;1.55;;;1.10;;
18853;SDS011;9556;49.374;19.446;2023-04-12T13:05:03;1.77;;;1.33;;
18853;SDS011;9556;49.374;19.446;2023-04-12T13:07:30;3.55;;;2.45;;
18853;SDS011;9556;49.374;19.446;2023-04-12T13:09:57;1.70;;;1.27;;
18853;SDS011;9556;49.374;19.446;2023-04-12T13:12:25;2.90;;;1.92;;
18853;SDS011;9556;49.374;19.446;2023-04-12T13:14:52;2.85;;;2.15;;
18853;SDS011;9556;49.374;19.446;2023-04-12T13:17:19;1.75;;;1.42;;
18853;SDS011;9556;49.374;19.446;2023-04-12T13:19:47;3.27;;;2.30;;
18853;SDS011;9556;49.374;19.446;2023-04-12T13:22:15;2.13;;;1.80;;
18853;SDS011;9556;49.374;19.446;2023-04-12T13:24:43;1.75;;;1.45;;
18853;SDS011;9556;49.374;19.446;2023-04-12T13:27:11;3.17;;;1.90;;
18853;SDS011;9556;49.374;19.446;2023-04-12T13:29:39;2.45;;;1.35;;
18853;SDS011;9556;49.374;19.446;2023-04-12T13:32:06;1.30;;;1.10;;
18853;SDS011;9556;49.374;19.446;2023-04-12T13:34:33;2.43;;;1.33;;
18853;SDS011;9556;49.374;19.446;2023-04-12T13:37:02;1.80;;;1.10;;
18853;SDS011;9556;49.374;19.446;2023-04-12T13:39:29;1.77;;;1.38;;
18853;SDS011;9556;49.374;19.446;2023-04-12T13:41:58;1.35;;;1.00;;
18853;SDS011;9556;49.374;19.446;2023-04-12T13:44:26;1.23;;;1.10;;
18853;SDS011;9556;49.374;19.446;2023-04-12T13:46:53;5.13;;;3.95;;
18853;SDS011;9556;49.374;19.446;2023-04-12T13:49:20;4.22;;;3.13;;
18853;SDS011;9556;49.374;19.446;2023-04-12T13:51:48;5.38;;;3.75;;
18853;SDS011;9556;49.374;19.446;2023-04-12T13:54:17;7.53;;;4.95;;
18853;SDS011;9556;49.374;19.446;2023-04-12T13:56:44;2.20;;;1.58;;
18853;SDS011;9556;49.374;19.446;2023-04-12T13:59:11;1.85;;;1.42;;
18853;SDS011;9556;49.374;19.446;2023-04-12T14:01:38;4.00;;;3.03;;
18853;SDS011;9556;49.374;19.446;2023-04-12T14:04:06;1.90;;;1.63;;
18853;SDS011;9556;49.374;19.446;2023-04-12T14:06:33;1.80;;;1.30;;
18853;SDS011;9556;49.374;19.446;2023-04-12T14:09:00;2.10;;;1.42;;
18853;SDS011;9556;49.374;19.446;2023-04-12T14:11:39;2.83;;;1.63;;
18853;SDS011;9556;49.374;19.446;2023-04-12T14:14:10;2.70;;;2.10;;
18853;SDS011;9556;49.374;19.446;2023-04-12T14:16:38;2.85;;;1.88;;
18853;SDS011;9556;49.374;19.446;2023-04-12T14:19:05;5.38;;;1.80;;
18853;SDS011;9556;49.374;19.446;2023-04-12T14:21:32;10.73;;;1.50;;
18853;SDS011;9556;49.374;19.446;2023-04-12T14:23:59;5.13;;;1.58;;
18853;SDS011;9556;49.374;19.446;2023-04-12T14:26:26;9.02;;;1.88;;
18853;SDS011;9556;49.374;19.446;2023-04-12T14:28:55;14.38;;;4.22;;
18853;SDS011;9556;49.374;19.446;2023-04-12T14:31:22;15.93;;;4.38;;
18853;SDS011;9556;49.374;19.446;2023-04-12T14:33:49;12.73;;;4.20;;
18853;SDS011;9556;49.374;19.446;2023-04-12T14:36:17;10.18;;;4.50;;
18853;SDS011;9556;49.374;19.446;2023-04-12T14:38:44;24.50;;;9.15;;
18853;SDS011;9556;49.374;19.446;2023-04-12T14:41:11;27.50;;;9.38;;
18853;SDS011;9556;49.374;19.446;2023-04-12T14:43:39;26.75;;;7.95;;
18853;SDS011;9556;49.374;19.446;2023-04-12T14:46:07;19.42;;;7.80;;
18853;SDS011;9556;49.374;19.446;2023-04-12T14:48:36;29.48;;;10.75;;
18853;SDS011;9556;49.374;19.446;2023-04-12T14:51:03;34.58;;;11.55;;
18853;SDS011;9556;49.374;19.446;2023-04-12T14:53:39;14.30;;;6.22;;
18853;SDS011;9556;49.374;19.446;2023-04-12T14:56:15;15.00;;;5.32;;
18853;SDS011;9556;49.374;19.446;2023-04-12T14:58:42;14.32;;;5.28;;
18853;SDS011;9556;49.374;19.446;2023-04-12T15:01:11;11.07;;;5.50;;
18853;SDS011;9556;49.374;19.446;2023-04-12T15:03:42;13.40;;;5.35;;
18853;SDS011;9556;49.374;19.446;2023-04-12T15:06:09;10.05;;;3.55;;